»·PEaware :: N5205X KBUR-KLAS

N5205X :: KBUR-KLAS

FLIGHT INFORMATION

Flight Status: Arrived
Operator: Privately registered:
United States
More flights under this callsign
Pilot: Martin B. (29991)
Aircraft: CIRRUS SR-22
(SR22)
More flights by this aircraft type
Origin: KBUR Bob Hope-Burbank
United States
Destination: KLAS McCarran Intl
United States
More flights between these airports :: More routes between these airports
Route: VNY3 DAG CRESO4
File this flight plan on PilotEdge
Remarks:
Altitude:
(Current/Filed)
17,000ft
Speed:
(Current/Filed)
175kts
Departed: 18-Nov-20 12:16 PM
Arrived: 18-Nov-20 01:36 PM
Distance/Time
Traveled:
193nm/1:20
Distance/Time
To Go:
Arrived

Flight Plot

Page will automatically refresh every two minutes.

Flight plan parsing failed; only flown route is shown


Map Options




Map Legend


Flown Route
Filed Route
Departure Airport
Arrival Airport
Navaid (VOR, NDB)
Fix

Horizontal Profiles

Position Reports

Time Latitude Longitude Heading Altitude Ground
Speed
18-Nov-20 11:59 34.203290 -118.360666 153 741ft 0kts
18-Nov-20 12:00 34.203290 -118.360666 153 741ft 0kts
18-Nov-20 12:01 34.203290 -118.360666 153 741ft 0kts
18-Nov-20 12:02 34.203290 -118.360666 153 741ft 0kts
18-Nov-20 12:03 34.203290 -118.360666 153 741ft 0kts
18-Nov-20 12:04 34.203290 -118.360666 153 741ft 0kts
18-Nov-20 12:05 34.203290 -118.360666 153 741ft 0kts
18-Nov-20 12:06 34.203290 -118.360666 153 741ft 0kts
18-Nov-20 12:07 34.203290 -118.360666 153 741ft 0kts
18-Nov-20 12:08 34.203290 -118.360666 153 741ft 0kts
18-Nov-20 12:09 34.203465 -118.360158 54 741ft 9kts
18-Nov-20 12:10 34.205810 -118.359811 347 751ft 20kts
18-Nov-20 12:11 34.210655 -118.361162 349 773ft 10kts
18-Nov-20 12:12 34.211719 -118.361409 303 777ft 0kts
18-Nov-20 12:13 34.211767 -118.361395 21 777ft 0kts
18-Nov-20 12:14 34.211779 -118.360525 137 777ft 16kts
18-Nov-20 12:15 34.191753 -118.360515 218 1648ft 100kts
18-Nov-20 12:16 34.173754 -118.387315 224 2452ft 103kts
18-Nov-20 12:17 34.156100 -118.415045 224 3205ft 104kts
18-Nov-20 12:18 34.148499 -118.446869 310 3929ft 120kts
18-Nov-20 12:19 34.180237 -118.458012 351 4951ft 122kts
18-Nov-20 12:20 34.213990 -118.464809 351 6185ft 119kts
18-Nov-20 12:22 34.246230 -118.468540 351 7397ft 121kts
18-Nov-20 12:23 34.280768 -118.470075 351 8499ft 126kts
18-Nov-20 12:24 34.314984 -118.464208 37 9554ft 131kts
18-Nov-20 12:25 34.343359 -118.437618 31 10588ft 126kts
18-Nov-20 12:26 34.370825 -118.413109 23 11589ft 119kts
18-Nov-20 12:27 34.397066 -118.390092 18 12502ft 114kts
18-Nov-20 12:28 34.423363 -118.367239 21 13212ft 128kts
18-Nov-20 12:29 34.451986 -118.342084 21 14004ft 128kts
18-Nov-20 12:30 34.477648 -118.310044 45 14754ft 137kts
18-Nov-20 12:31 34.500784 -118.272872 48 15457ft 139kts
18-Nov-20 12:32 34.524247 -118.235348 43 16116ft 140kts
18-Nov-20 12:33 34.547964 -118.197417 44 16710ft 138kts
18-Nov-20 12:34 34.571873 -118.159210 45 16950ft 147kts
18-Nov-20 12:35 34.599032 -118.115907 46 16984ft 176kts
18-Nov-20 12:36 34.628758 -118.068072 49 16961ft 176kts
18-Nov-20 12:37 34.637521 -118.009829 87 16963ft 176kts
18-Nov-20 12:37 34.642814 -117.960480 87 16955ft 176kts
18-Nov-20 12:39 34.650302 -117.891619 87 16949ft 176kts
18-Nov-20 12:39 34.655654 -117.842270 87 16944ft 176kts
18-Nov-20 12:41 34.663119 -117.773227 87 16949ft 176kts
18-Nov-20 12:41 34.673979 -117.725150 73 16952ft 177kts
18-Nov-20 12:43 34.692246 -117.654237 73 16968ft 198kts
18-Nov-20 12:43 34.706407 -117.598974 73 16972ft 210kts
18-Nov-20 12:44 34.724012 -117.530062 73 16970ft 215kts
18-Nov-20 12:45 34.741880 -117.459926 73 16971ft 217kts
18-Nov-20 12:46 34.759660 -117.389974 73 17007ft 217kts
18-Nov-20 12:47 34.777488 -117.319686 73 16994ft 217kts
18-Nov-20 12:48 34.795210 -117.249548 73 16987ft 216kts
18-Nov-20 12:49 34.812882 -117.179436 74 16977ft 216kts
18-Nov-20 12:50 34.830494 -117.109390 73 16963ft 217kts
18-Nov-20 12:51 34.848090 -117.039227 74 16954ft 215kts
18-Nov-20 12:52 34.865414 -116.969936 74 16980ft 209kts
18-Nov-20 12:53 34.882176 -116.902714 74 17021ft 207kts
18-Nov-20 12:54 34.898863 -116.835677 74 17020ft 206kts
18-Nov-20 12:55 34.915463 -116.768774 75 17021ft 207kts
18-Nov-20 12:56 34.932184 -116.701167 75 17022ft 209kts
18-Nov-20 12:57 34.949049 -116.632823 75 17023ft 210kts
18-Nov-20 12:58 34.968176 -116.565068 61 17029ft 213kts
18-Nov-20 12:59 34.996927 -116.500818 61 17033ft 216kts
18-Nov-20 13:00 35.025814 -116.435811 62 17040ft 219kts
18-Nov-20 13:01 35.055177 -116.369546 62 17047ft 222kts
18-Nov-20 13:02 35.084700 -116.302955 63 17037ft 222kts
18-Nov-20 13:03 35.114003 -116.236465 63 17030ft 220kts
18-Nov-20 13:04 35.143088 -116.170467 63 17031ft 219kts
18-Nov-20 13:05 35.171967 -116.104806 63 17032ft 219kts
18-Nov-20 13:06 35.201012 -116.038649 63 17033ft 220kts
18-Nov-20 13:07 35.229830 -115.972893 63 17052ft 219kts
18-Nov-20 13:08 35.258687 -115.906914 63 17098ft 218kts
18-Nov-20 13:09 35.287534 -115.840828 63 17084ft 220kts
18-Nov-20 13:10 35.318593 -115.776024 44 17073ft 221kts
18-Nov-20 13:11 35.361469 -115.719436 44 16446ft 216kts
18-Nov-20 13:12 35.400398 -115.667536 45 14963ft 201kts
18-Nov-20 13:13 35.437606 -115.617835 45 13399ft 198kts
18-Nov-20 13:14 35.475783 -115.566739 46 11451ft 205kts
18-Nov-20 13:15 35.513079 -115.516747 45 10027ft 180kts
18-Nov-20 13:16 35.547732 -115.470370 46 9938ft 194kts
18-Nov-20 13:17 35.580699 -115.426051 46 9165ft 173kts
18-Nov-20 13:18 35.619182 -115.374341 46 8563ft 222kts
18-Nov-20 13:19 35.660118 -115.319121 47 8036ft 206kts
18-Nov-20 13:20 35.697259 -115.269031 47 8042ft 193kts
18-Nov-20 13:21 35.733411 -115.220184 46 8044ft 192kts
18-Nov-20 13:22 35.769358 -115.171647 48 8043ft 191kts
18-Nov-20 13:23 35.818190 -115.145014 11 7516ft 204kts
18-Nov-20 13:24 35.872898 -115.125967 11 7033ft 197kts
18-Nov-20 13:25 35.924171 -115.108550 11 7033ft 188kts
18-Nov-20 13:26 35.974430 -115.091883 11 7038ft 187kts
18-Nov-20 13:27 36.024664 -115.075835 11 6983ft 184kts
18-Nov-20 13:28 36.068971 -115.062608 10 5916ft 147kts
18-Nov-20 13:29 36.103423 -115.052554 22 5296ft 114kts
18-Nov-20 13:30 36.135626 -115.043606 8 5269ft 154kts
18-Nov-20 13:31 36.165070 -115.077332 284 4841ft 153kts
18-Nov-20 13:32 36.163216 -115.116024 216 3603ft 91kts
18-Nov-20 13:33 36.142593 -115.131946 204 3003ft 93kts
18-Nov-20 13:34 36.112662 -115.149116 199 2587ft 97kts
18-Nov-20 13:35 36.093745 -115.159831 203 2104ft 20kts
18-Nov-20 13:36 36.089356 -115.163517 262 2128ft 0kts
18-Nov-20 13:37 36.089355 -115.163524 263 2128ft 0kts
18-Nov-20 13:38 36.089127 -115.164753 209 2133ft 15kts
18-Nov-20 13:39 36.086254 -115.167122 203 2148ft 18kts
18-Nov-20 13:40 36.083488 -115.168986 111 2160ft 0kts

Navigation Log

Ident Type
Flight plan parsing failed, navigation log unavailable